This is the latest recevied weather packets stored in our database for station/object IZ6SAC-13. If no packets are shown the sender has not sent any weather packets the latest 10 day(s).
| Time | Temp. | Humidity | Pressure | Rain* | Wind** | Luminosity | Snow |
|---|---|---|---|---|---|---|---|
| 1777484119 | 17.22° C | 70% | 1015.8 hPa | 0 mm | - | - | - |
| 1777482324 | 18.33° C | 68% | 1015.6 hPa | 0 mm | - | - | - |
| 1777481732 | 18.33° C | 67% | 1015.7 hPa | 0 mm | - | - | - |
| 1777481127 | 18.89° C | 64% | 1015.6 hPa | 0 mm | - | - | - |
| 1777479331 | 18.89° C | 64% | 1015.6 hPa | 0 mm | - | - | - |
| 1777477535 | 22.22° C | 50% | 1015.6 hPa | 0 mm | - | - | - |
| 1777475720 | 22.78° C | 54% | 1015.6 hPa | 0 mm | - | - | - |
| 1777473925 | 23.33° C | 56% | 1015.5 hPa | 0 mm | - | - | - |
| 1777472131 | 23.33° C | 57% | 1015.7 hPa | 0 mm | - | - | - |
| 1777470336 | 23.33° C | 60% | 1015.9 hPa | 0 mm | - | - | - |
| 1777468521 | 22.22° C | 60% | 1015.9 hPa | 0 mm | - | - | - |
| 1777466727 | 22.78° C | 60% | 1015.9 hPa | 0 mm | - | - | - |
| 1777464933 | 22.78° C | 62% | 1015.8 hPa | 0 mm | - | - | - |
| 1777463118 | 22.78° C | 58% | 1015.8 hPa | 0 mm | - | - | - |
| 1777461324 | 22.78° C | 59% | 1015.9 hPa | 0 mm | - | - | - |
| 1777459529 | 23.89° C | 60% | 1016 hPa | 0 mm | - | - | - |
| 1777457731 | 25.56° C | 50% | 1016 hPa | 0 mm | - | - | - |
| 1777455934 | 25° C | 46% | 1016.2 hPa | 0 mm | - | - | - |
| 1777454120 | 23.89° C | 46% | 1016.3 hPa | 0 mm | - | - | - |
| 1777452325 | 22.78° C | 51% | 1016.4 hPa | 0 mm | - | - | - |
| 1777450530 | 21.11° C | 51% | 1016.3 hPa | 0 mm | - | - | - |
| 1777448735 | 21.67° C | 55% | 1016.2 hPa | 0 mm | - | - | - |
| 1777446918 | 23.89° C | 47% | 1015.9 hPa | 0 mm | - | - | - |
| 1777445125 | 21.67° C | 47% | 1015.8 hPa | 0 mm | - | - | - |
| 1777443331 | 19.44° C | 51% | 1015.8 hPa | 0 mm | - | - | - |
* Rain latest hour (hover to see other rain measurements)
** Current wind speed in m/s (hover to see current wind gust speed)